Time;durP1;ratioP1;P1;durP2;ratioP2;P2;SDS_P1;SDS_P2;PMS_P1;PMS_P2;Temp;Humidity;BMP_temperature;BMP_pressure;BME280_temperature;BME280_humidity;BME280_pressure;Samples;Min_cycle;Max_cycle;Signal;HPM_P1;HPM_P2
2023/05/20 00:01:54;;;;;;;10.10;7.10;;;;;;;16.39;66.68;94949.88;5064209;28;20198;-45
2023/05/20 00:04:21;;;;;;;9.17;7.47;;;;;;;16.22;66.69;94920.75;5049538;28;20635;-42
2023/05/20 00:06:48;;;;;;;9.67;7.10;;;;;;;16.33;66.90;94947.97;5065361;28;20183;-43
2023/05/20 00:09:16;;;;;;;10.80;7.30;;;;;;;16.28;66.97;94947.69;5072244;28;20239;-45
2023/05/20 00:11:43;;;;;;;8.73;7.00;;;;;;;16.31;66.86;94958.44;5068956;28;20604;-44
2023/05/20 00:14:11;;;;;;;8.93;6.97;;;;;;;16.29;66.92;94952.66;5069141;28;20178;-43
2023/05/20 00:16:38;;;;;;;7.63;6.83;;;;;;;16.28;67.10;94948.47;5068433;28;20198;-45
2023/05/20 00:19:04;;;;;;;11.83;7.10;;;;;;;16.27;67.08;94943.47;5068806;28;20198;-44
2023/05/20 00:21:32;;;;;;;10.57;7.53;;;;;;;16.26;67.12;94941.88;5068594;28;20194;-43
2023/05/20 00:23:59;;;;;;;10.57;7.63;;;;;;;16.21;67.28;94947.53;5068585;28;20222;-45
2023/05/20 00:26:26;;;;;;;9.33;7.37;;;;;;;16.20;67.49;94943.34;5068656;28;20187;-45
2023/05/20 00:28:53;;;;;;;8.67;6.87;;;;;;;16.17;67.27;94938.50;5077528;28;20217;-43
2023/05/20 00:31:21;;;;;;;9.83;7.23;;;;;;;16.15;67.37;94937.88;5072044;28;20604;-43
2023/05/20 00:33:48;;;;;;;11.40;6.97;;;;;;;16.14;67.51;94938.81;5072394;28;20658;-44
2023/05/20 00:36:15;;;;;;;10.23;7.03;;;;;;;16.12;67.51;94932.25;5071780;28;20714;-45
2023/05/20 00:38:41;;;;;;;10.47;7.40;;;;;;;16.05;67.58;94926.91;5072270;28;20251;-46
2023/05/20 00:41:08;;;;;;;8.13;7.30;;;;;;;16.07;67.68;94919.84;5072063;28;20637;-46
2023/05/20 00:43:35;;;;;;;8.20;6.87;;;;;;;16.05;67.69;94926.91;5073295;28;20622;-45
2023/05/20 00:46:02;;;;;;;8.00;6.97;;;;;;;15.50;67.65;94840.81;5071842;28;20231;-43
2023/05/20 00:48:39;;;;;;;9.33;6.80;;;;;;;16.02;67.90;94922.13;5071955;28;20240;-45
2023/05/20 00:51:06;;;;;;;8.83;7.03;;;;;;;16.01;67.79;94917.91;5071515;28;20200;-45
2023/05/20 00:53:34;;;;;;;8.83;7.47;;;;;;;16.00;67.69;94917.09;5071952;28;20525;-45
2023/05/20 00:56:01;;;;;;;9.33;7.00;;;;;;;15.99;67.82;94918.06;5071803;28;20574;-45
2023/05/20 00:58:28;;;;;;;12.83;6.90;;;;;;;15.98;68.07;94913.91;5071742;28;20578;-45
2023/05/20 01:00:55;;;;;;;8.73;7.23;;;;;;;15.97;67.87;94914.84;5071784;28;20191;-48
2023/05/20 01:03:22;;;;;;;7.80;7.00;;;;;;;15.96;68.04;94915.03;5071672;28;20248;-45
2023/05/20 01:05:50;;;;;;;7.90;7.10;;;;;;;15.95;68.00;94908.25;5071856;28;20277;-45
2023/05/20 01:08:17;;;;;;;8.53;7.50;;;;;;;15.95;68.10;94903.09;5071500;28;20190;-42
2023/05/20 01:10:47;;;;;;;7.20;6.60;;;;;;;15.93;67.86;94916.16;5071464;28;20689;-44
2023/05/20 01:13:17;;;;;;;9.60;7.57;;;;;;;15.90;68.26;94913.13;5071154;28;20308;-44
2023/05/20 01:15:46;;;;;;;13.67;7.77;;;;;;;15.91;68.05;94910.34;5071451;28;20190;-43
2023/05/20 01:18:17;;;;;;;10.00;6.97;;;;;;;15.87;68.18;94906.50;5071552;28;20197;-42
2023/05/20 01:20:46;;;;;;;14.73;7.10;;;;;;;15.90;68.13;94919.06;5070856;28;20266;-48
2023/05/20 01:23:15;;;;;;;11.33;7.27;;;;;;;15.89;68.20;94921.78;5071341;28;20194;-45
2023/05/20 01:25:42;;;;;;;8.17;7.30;;;;;;;15.88;68.22;94922.78;5071441;28;20186;-45
2023/05/20 01:28:09;;;;;;;8.10;6.60;;;;;;;15.85;68.20;94916.19;5071095;28;20198;-45
2023/05/20 01:30:44;;;;;;;7.43;6.43;;;;;;;15.84;68.32;94916.31;5071266;28;20197;-43
2023/05/20 01:33:12;;;;;;;7.37;6.67;;;;;;;15.82;68.42;94911.34;5071145;28;20249;-46
2023/05/20 01:35:41;;;;;;;8.57;7.23;;;;;;;15.80;68.49;94918.44;5070910;28;20187;-46
2023/05/20 01:38:08;;;;;;;8.13;6.47;;;;;;;15.79;68.56;94911.66;5070437;28;20649;-45
2023/05/20 01:40:37;;;;;;;8.73;6.90;;;;;;;15.77;68.63;94906.69;5071043;28;20183;-46
2023/05/20 01:43:05;;;;;;;9.13;6.73;;;;;;;15.76;68.64;94909.44;5070763;28;20179;-46
2023/05/20 01:45:32;;;;;;;8.17;6.90;;;;;;;15.72;68.72;94908.97;5071040;28;20186;-45
2023/05/20 01:48:00;;;;;;;8.53;6.50;;;;;;;15.73;68.74;94899.44;5070746;28;20198;-45
2023/05/20 01:50:27;;;;;;;7.73;6.63;;;;;;;15.74;68.66;94912.16;5070821;28;20662;-43
2023/05/20 01:52:54;;;;;;;8.67;6.73;;;;;;;15.73;68.70;94907.97;5070902;28;20222;-47
2023/05/20 01:55:21;;;;;;;9.57;6.90;;;;;;;15.74;68.60;94908.78;5071398;28;20292;-45
2023/05/20 01:57:49;;;;;;;7.07;6.10;;;;;;;15.73;68.78;94910.56;5071530;28;20236;-45
2023/05/20 02:00:16;;;;;;;8.17;7.20;;;;;;;15.71;68.61;94906.53;5070927;28;20179;-43
2023/05/20 02:02:43;;;;;;;8.37;6.57;;;;;;;15.16;68.69;94817.81;5070694;28;20591;-46
2023/05/20 02:05:10;;;;;;;7.50;6.67;;;;;;;15.69;68.93;94898.97;5070134;28;20190;-46
2023/05/20 02:07:37;;;;;;;11.13;7.13;;;;;;;15.67;68.80;94889.75;5070483;28;20205;-46
2023/05/20 02:10:04;;;;;;;9.80;6.67;;;;;;;15.68;68.86;94899.13;5070432;28;20186;-46
2023/05/20 02:12:31;;;;;;;8.90;6.23;;;;;;;15.63;69.00;94902.19;5070301;28;20230;-46
2023/05/20 02:14:59;;;;;;;9.63;6.37;;;;;;;15.65;68.99;94896.88;5070305;28;20182;-46
2023/05/20 02:17:26;;;;;;;7.70;6.90;;;;;;;15.63;68.90;94902.19;5070502;28;20194;-46
2023/05/20 02:19:53;;;;;;;8.27;7.37;;;;;;;15.62;69.01;94902.31;5070160;28;20273;-46
2023/05/20 02:22:20;;;;;;;11.20;6.77;;;;;;;15.60;69.08;94897.34;5070677;28;20271;-45
2023/05/20 02:24:46;;;;;;;9.53;6.53;;;;;;;15.59;69.09;94903.47;5067122;28;20229;-42
2023/05/20 02:27:13;;;;;;;9.37;6.00;;;;;;;15.59;69.17;94907.78;5049890;28;20210;-44
2023/05/20 02:29:43;;;;;;;10.57;6.87;;;;;;;15.56;69.28;94899.44;5051496;28;20662;-42
2023/05/20 02:32:11;;;;;;;6.83;5.97;;;;;;;15.56;69.23;94893.47;5050281;28;20219;-45
2023/05/20 02:34:38;;;;;;;7.83;6.53;;;;;;;15.54;69.32;94892.81;5056888;28;20564;-45
2023/05/20 02:37:05;;;;;;;8.57;6.37;;;;;;;15.52;69.38;94890.41;5071614;28;20212;-44
2023/05/20 02:39:31;;;;;;;7.13;6.43;;;;;;;15.51;69.30;94893.97;5069767;28;20255;-44
2023/05/20 02:41:58;;;;;;;8.07;6.30;;;;;;;15.51;69.45;94893.97;5069533;28;20190;-45
2023/05/20 02:44:25;;;;;;;7.47;6.47;;;;;;;15.49;69.45;94889.94;5070087;28;20187;-45
2023/05/20 02:46:52;;;;;;;10.07;6.37;;;;;;;15.47;69.44;94897.84;5069125;28;20652;-44
2023/05/20 02:49:20;;;;;;;8.47;6.80;;;;;;;15.44;69.40;94887.03;5069562;28;20610;-44
2023/05/20 02:51:47;;;;;;;7.23;6.17;;;;;;;15.43;69.36;94899.13;5069055;28;20194;-46
2023/05/20 02:54:13;;;;;;;7.90;6.30;;;;;;;15.41;69.29;94895.09;5070006;28;20601;-44
2023/05/20 02:56:40;;;;;;;7.63;6.50;;;;;;;15.43;69.47;94896.53;5069049;28;20831;-44
2023/05/20 02:59:07;;;;;;;7.47;6.30;;;;;;;15.43;69.57;94890.59;5069792;28;20244;-44
2023/05/20 03:01:34;;;;;;;7.37;5.93;;;;;;;15.44;69.55;94902.50;5069824;28;20190;-45
2023/05/20 03:04:02;;;;;;;7.50;6.40;;;;;;;15.41;69.60;94895.88;5069788;28;20264;-45
2023/05/20 03:06:30;;;;;;;10.50;6.83;;;;;;;15.44;69.54;94898.16;5069408;28;20189;-45
2023/05/20 03:08:57;;;;;;;7.63;6.73;;;;;;;15.44;69.46;94900.72;5069152;28;20222;-42
2023/05/20 03:11:24;;;;;;;7.40;6.53;;;;;;;15.46;69.41;94903.16;5069334;28;20670;-46
2023/05/20 03:13:51;;;;;;;9.27;7.30;;;;;;;15.43;69.40;94904.28;5069285;28;20245;-44
2023/05/20 03:16:18;;;;;;;7.63;6.47;;;;;;;15.48;69.44;94914.09;5069972;28;20194;-45
2023/05/20 03:18:45;;;;;;;7.03;6.30;;;;;;;15.52;69.35;94912.81;5069958;28;20190;-45
2023/05/20 03:21:12;;;;;;;6.80;5.80;;;;;;;15.47;69.19;94900.41;5069466;28;20189;-45
2023/05/20 03:23:40;;;;;;;7.63;6.80;;;;;;;15.57;69.34;94919.06;5068880;28;20919;-46
2023/05/20 03:26:06;;;;;;;7.53;6.37;;;;;;;15.62;69.15;94920.38;5069128;28;20186;-45
2023/05/20 03:28:33;;;;;;;7.97;6.00;;;;;;;15.65;69.33;94920.06;5068662;28;20194;-45
2023/05/20 03:31:01;;;;;;;7.13;6.43;;;;;;;15.66;69.09;94917.31;5068888;28;20236;-45
2023/05/20 03:33:30;;;;;;;6.97;6.13;;;;;;;15.70;69.22;94916.03;5069408;28;20233;-46
2023/05/20 03:35:57;;;;;;;7.20;6.47;;;;;;;15.78;68.89;94918.59;5069227;28;20193;-46
2023/05/20 03:38:23;;;;;;;8.47;6.50;;;;;;;15.75;68.96;94906.03;5068686;28;20888;-43
2023/05/20 03:40:51;;;;;;;7.00;6.30;;;;;;;15.85;68.63;94913.59;5069195;28;20566;-45
2023/05/20 03:43:18;;;;;;;6.53;5.73;;;;;;;15.93;68.82;94923.06;5069267;28;20193;-46
2023/05/20 03:45:45;;;;;;;7.33;6.27;;;;;;;15.98;68.72;94926.78;5068913;28;20198;-46
2023/05/20 03:48:12;;;;;;;10.50;6.77;;;;;;;16.04;68.62;94930.47;5069076;28;20744;-45
2023/05/20 03:50:38;;;;;;;8.90;6.17;;;;;;;16.10;68.48;94934.16;5068765;28;20209;-46
2023/05/20 03:53:05;;;;;;;6.80;6.13;;;;;;;16.16;68.52;94928.34;5068694;28;20225;-44
2023/05/20 03:55:32;;;;;;;8.93;6.30;;;;;;;16.24;68.13;94938.66;5069167;28;20183;-46
2023/05/20 03:58:01;;;;;;;8.23;6.47;;;;;;;16.31;68.19;94931.84;5069372;28;20179;-46
2023/05/20 04:00:30;;;;;;;8.07;6.57;;;;;;;16.37;68.08;94936.34;5068204;28;20225;-45
2023/05/20 04:02:57;;;;;;;9.10;6.50;;;;;;;16.44;67.89;94939.06;5072484;28;20271;-46
2023/05/20 04:05:23;;;;;;;7.57;6.53;;;;;;;16.51;67.88;94932.25;5072733;28;20563;-43
2023/05/20 04:07:50;;;;;;;8.83;6.53;;;;;;;16.39;67.74;94905.19;5072527;28;20194;-46
2023/05/20 04:10:19;;;;;;;6.80;6.10;;;;;;;16.69;67.64;94943.13;5072118;28;20186;-46
2023/05/20 04:12:46;;;;;;;9.03;6.90;;;;;;;16.79;67.43;94942.94;5072288;28;20570;-44
2023/05/20 04:15:14;;;;;;;9.00;6.83;;;;;;;16.83;67.17;94944.22;5072414;28;20186;-45
2023/05/20 04:17:42;;;;;;;13.47;6.57;;;;;;;16.79;67.06;94925.69;5072659;28;20201;-45
2023/05/20 04:20:10;;;;;;;8.00;6.60;;;;;;;17.05;66.92;94958.16;5072606;28;20730;-45
2023/05/20 04:22:38;;;;;;;7.53;6.43;;;;;;;17.11;66.78;94948.94;5071514;28;20251;-44
2023/05/20 04:25:05;;;;;;;8.23;6.53;;;;;;;17.25;66.51;94961.09;5072304;28;20316;-46
2023/05/20 04:27:33;;;;;;;8.77;6.60;;;;;;;17.34;66.39;94959.25;5072215;28;20190;-47
2023/05/20 04:30:01;;;;;;;6.87;6.10;;;;;;;17.45;66.34;94956.28;5072542;28;20194;-45
2023/05/20 04:32:29;;;;;;;8.10;6.47;;;;;;;17.51;66.43;94943.44;5071442;28;20241;-44
2023/05/20 04:34:56;;;;;;;8.50;6.97;;;;;;;17.51;66.01;94930.53;5071883;28;20195;-45
2023/05/20 04:37:24;;;;;;;9.90;6.93;;;;;;;17.72;65.88;94944.56;5071803;28;20194;-43
2023/05/20 04:39:51;;;;;;;9.03;7.13;;;;;;;17.85;65.84;94952.56;5072469;28;20229;-44
2023/05/20 04:42:19;;;;;;;9.10;6.73;;;;;;;17.95;65.59;94947.13;5072854;28;20187;-48
2023/05/20 04:44:46;;;;;;;6.87;6.20;;;;;;;18.04;65.48;94952.06;5078894;28;20315;-43
2023/05/20 04:47:14;;;;;;;7.67;6.73;;;;;;;18.14;65.45;94953.59;5075173;28;20689;-45
2023/05/20 04:49:42;;;;;;;8.13;6.23;;;;;;;18.25;65.27;94958.31;5072283;28;20716;-45
2023/05/20 04:52:08;;;;;;;9.63;6.83;;;;;;;18.34;65.05;94969.38;5072175;28;20194;-45
2023/05/20 04:54:35;;;;;;;11.07;7.00;;;;;;;18.43;64.83;94963.94;5072031;28;20195;-46
2023/05/20 04:57:02;;;;;;;7.50;6.70;;;;;;;18.54;64.61;94958.31;5072349;28;20179;-44
2023/05/20 04:59:29;;;;;;;7.73;6.60;;;;;;;18.69;64.69;94958.31;5072581;28;20186;-45
2023/05/20 05:01:55;;;;;;;7.50;4.93;;;;;;;19.07;82.27;94931.44;5072507;28;20178;-47
2023/05/20 05:04:22;;;;;;;7.60;4.60;;;;;;;19.94;81.61;94952.75;5073844;28;20220;-44
2023/05/20 05:06:50;;;;;;;6.87;5.47;;;;;;;20.81;79.21;94956.66;5074240;28;20637;-43
2023/05/20 05:09:17;;;;;;;5.95;4.95;;;;;;;21.66;76.37;94957.88;5073787;28;20199;-45
2023/05/20 05:11:44;;;;;;;8.45;4.28;;;;;;;22.50;73.77;94953.81;5072438;28;20185;-46
2023/05/20 05:14:11;;;;;;;5.10;4.47;;;;;;;23.30;71.25;94962.13;5071597;28;20248;-46
2023/05/20 05:16:37;;;;;;;6.63;5.38;;;;;;;24.07;69.10;94962.78;5072054;28;20582;-46
2023/05/20 05:19:04;;;;;;;8.88;5.20;;;;;;;24.79;66.98;94963.09;5071700;28;20658;-46
2023/05/20 05:21:31;;;;;;;5.30;4.35;;;;;;;25.47;64.75;94972.50;5071696;28;20194;-45
2023/05/20 05:23:59;;;;;;;7.43;4.72;;;;;;;26.07;62.19;94967.16;5071312;28;20230;-46
2023/05/20 05:26:26;;;;;;;14.82;5.32;;;;;;;26.61;60.63;94959.19;5071640;28;20190;-46
2023/05/20 05:28:55;;;;;;;6.80;4.85;;;;;;;27.13;58.98;94962.63;5071272;28;20251;-48
2023/05/20 05:31:22;;;;;;;6.75;4.53;;;;;;;27.59;58.19;94963.44;5071110;28;20657;-47
2023/05/20 05:33:49;;;;;;;6.53;5.10;;;;;;;28.04;57.36;94961.81;5071563;28;20213;-47
2023/05/20 05:36:16;;;;;;;6.47;5.40;;;;;;;28.37;56.07;94942.56;5071338;28;20190;-45
2023/05/20 05:38:43;;;;;;;9.80;5.45;;;;;;;28.79;54.70;94950.75;5071813;28;20197;-45
2023/05/20 05:41:11;;;;;;;5.90;4.75;;;;;;;29.13;53.81;94956.69;5071848;28;20758;-47
2023/05/20 05:43:38;;;;;;;10.20;5.10;;;;;;;29.45;52.90;94954.13;5052104;28;20256;-46
2023/05/20 05:46:05;;;;;;;8.10;5.88;;;;;;;29.77;51.76;94961.28;5064348;28;20194;-46
2023/05/20 05:48:32;;;;;;;6.40;4.82;;;;;;;30.05;51.27;94960.19;5070964;28;20201;-46
2023/05/20 05:50:59;;;;;;;12.00;4.70;;;;;;;30.31;50.67;94960.38;5053881;28;20260;-46
2023/05/20 05:53:25;;;;;;;10.93;5.13;;;;;;;30.56;50.13;94949.16;5049015;28;20227;-46
2023/05/20 05:55:52;;;;;;;8.40;5.10;;;;;;;30.79;49.70;94956.72;5048315;28;20256;-42
2023/05/20 05:58:20;;;;;;;6.68;5.07;;;;;;;31.03;49.35;94943.84;5048681;28;20202;-46
2023/05/20 06:00:47;;;;;;;18.75;4.40;;;;;;;31.24;48.83;94956.06;5061448;28;20719;-46
2023/05/20 06:03:14;;;;;;;10.93;5.10;;;;;;;31.43;48.71;94948.47;5068607;28;20201;-47
2023/05/20 06:05:45;;;;;;;6.20;4.75;;;;;;;31.63;48.09;94944.25;5068678;28;20186;-44
2023/05/20 06:08:12;;;;;;;5.70;4.65;;;;;;;31.52;48.09;94905.63;5068856;28;20221;-45
2023/05/20 06:10:38;;;;;;;5.85;4.90;;;;;;;31.96;47.24;94949.06;5068282;28;20221;-45
2023/05/20 06:13:05;;;;;;;6.40;4.50;;;;;;;32.11;47.13;94948.25;5067945;28;20303;-48
2023/05/20 06:15:35;;;;;;;9.60;5.32;;;;;;;32.25;46.74;94948.47;5067901;28;20239;-47
2023/05/20 06:18:01;;;;;;;5.95;5.30;;;;;;;32.39;46.49;94951.41;5068319;28;20194;-46
2023/05/20 06:20:28;;;;;;;5.68;4.93;;;;;;;32.53;45.75;94944.47;5068360;28;20186;-45
2023/05/20 06:22:55;;;;;;;9.80;5.43;;;;;;;32.64;45.41;94938.09;5067924;28;20704;-46
2023/05/20 06:25:22;;;;;;;9.27;5.60;;;;;;;32.76;45.35;94939.63;5066826;28;20641;-45
2023/05/20 06:27:49;;;;;;;9.30;5.20;;;;;;;32.86;45.16;94947.53;5068032;28;20293;-45
2023/05/20 06:30:16;;;;;;;15.68;5.40;;;;;;;32.96;44.88;94932.41;5067920;28;20186;-46
2023/05/20 06:32:45;;;;;;;8.43;5.15;;;;;;;33.12;44.79;94941.09;5067609;28;20695;-45
2023/05/20 06:35:12;;;;;;;9.93;5.13;;;;;;;33.25;44.56;94922.97;5068008;28;20307;-46
2023/05/20 06:37:39;;;;;;;9.23;5.45;;;;;;;33.42;44.03;94924.22;5067047;28;20198;-46
2023/05/20 06:40:07;;;;;;;5.45;4.93;;;;;;;33.58;44.00;94930.22;5068175;28;20187;-49
2023/05/20 06:42:34;;;;;;;25.90;5.38;;;;;;;33.73;43.43;94917.91;5068144;28;20190;-45
2023/05/20 06:45:01;;;;;;;19.45;5.10;;;;;;;33.85;43.31;94915.66;5067942;28;20186;-46
2023/05/20 06:47:27;;;;;;;9.23;5.30;;;;;;;33.97;43.19;94918.78;5067697;28;20194;-46
2023/05/20 06:49:56;;;;;;;11.07;5.65;;;;;;;34.07;43.06;94916.06;5067394;28;20190;-45
2023/05/20 06:52:22;;;;;;;13.25;4.65;;;;;;;34.15;42.93;94906.66;5067628;28;20204;-46
2023/05/20 06:54:49;;;;;;;10.43;5.28;;;;;;;34.19;42.79;94918.31;5066481;28;20214;-46
2023/05/20 06:57:16;;;;;;;10.80;5.22;;;;;;;34.19;42.40;94919.09;5067441;28;20194;-46
2023/05/20 06:59:43;;;;;;;12.75;5.03;;;;;;;34.17;42.40;94921.25;5066486;28;20601;-46
2023/05/20 07:02:09;;;;;;;18.15;5.30;;;;;;;34.21;42.40;94926.78;5067074;28;20231;-46
2023/05/20 07:04:36;;;;;;;9.98;4.95;;;;;;;34.23;42.30;94926.50;5067414;28;20638;-48
2023/05/20 07:07:05;;;;;;;7.13;5.30;;;;;;;34.25;42.22;94935.00;5067775;28;20193;-45
2023/05/20 07:09:31;;;;;;;6.40;4.55;;;;;;;34.24;42.05;94928.88;5067246;28;20198;-46
2023/05/20 07:11:58;;;;;;;5.30;4.80;;;;;;;34.19;41.84;94916.44;5067305;28;20201;-46
2023/05/20 07:14:25;;;;;;;8.70;5.18;;;;;;;34.24;41.67;94925.44;5066672;28;20226;-45
2023/05/20 07:16:52;;;;;;;11.25;5.10;;;;;;;34.24;41.51;94920.91;5067575;28;20797;-48
2023/05/20 07:19:19;;;;;;;8.23;5.25;;;;;;;34.23;41.52;94919.31;5066912;28;20201;-45
2023/05/20 07:21:46;;;;;;;10.13;5.28;;;;;;;34.23;41.40;94929.16;5067643;28;20209;-45
2023/05/20 07:24:14;;;;;;;5.65;4.57;;;;;;;34.18;41.31;94933.44;5067332;28;20308;-46
2023/05/20 07:26:41;;;;;;;6.47;4.38;;;;;;;34.09;40.08;94921.84;5066400;28;20259;-45
2023/05/20 07:29:09;;;;;;;7.80;5.40;;;;;;;33.87;39.32;94885.13;5067310;28;20199;-47
2023/05/20 07:31:36;;;;;;;10.48;5.07;;;;;;;34.01;38.97;94914.50;5067038;28;20203;-45
2023/05/20 07:34:02;;;;;;;5.82;4.97;;;;;;;34.02;39.07;94916.06;5067089;28;20217;-47
2023/05/20 07:36:29;;;;;;;6.63;4.72;;;;;;;34.00;38.97;94914.78;5066795;28;20550;-47
2023/05/20 07:38:56;;;;;;;15.25;5.03;;;;;;;33.82;38.83;94893.16;5066795;28;20200;-46
2023/05/20 07:41:25;;;;;;;6.65;4.88;;;;;;;33.95;38.00;94932.31;5066657;28;20696;-45
2023/05/20 07:43:52;;;;;;;7.25;4.90;;;;;;;33.90;37.94;94923.59;5067372;28;20198;-46
2023/05/20 07:46:18;;;;;;;8.52;5.00;;;;;;;33.86;37.59;94922.59;5066566;28;20213;-45
2023/05/20 07:48:45;;;;;;;6.00;4.78;;;;;;;33.83;37.54;94926.56;5066766;28;20202;-45
2023/05/20 07:51:12;;;;;;;5.80;4.97;;;;;;;33.81;37.78;94919.94;5066734;28;20194;-45
2023/05/20 07:53:39;;;;;;;6.43;4.57;;;;;;;33.70;37.67;94901.47;5067329;28;20226;-48
2023/05/20 07:56:07;;;;;;;15.40;4.93;;;;;;;33.81;37.73;94914.63;5066933;28;20209;-46
2023/05/20 07:58:35;;;;;;;11.10;4.18;;;;;;;33.80;37.97;94913.06;5066844;28;20197;-48
2023/05/20 08:01:02;;;;;;;9.55;4.90;;;;;;;33.77;38.13;94908.34;5066542;28;20202;-45
2023/05/20 08:03:28;;;;;;;6.60;4.40;;;;;;;33.74;38.32;94911.53;5066652;28;20187;-45
2023/05/20 08:05:55;;;;;;;6.95;4.15;;;;;;;33.67;38.15;94914.50;5066914;28;20194;-46
2023/05/20 08:08:22;;;;;;;6.85;4.80;;;;;;;33.63;38.04;94916.13;5066201;28;20349;-46
2023/05/20 08:10:51;;;;;;;5.10;4.60;;;;;;;33.51;38.26;94895.28;5066539;28;20194;-45
2023/05/20 08:13:17;;;;;;;7.82;4.68;;;;;;;33.52;38.32;94901.38;5065728;28;20554;-46
2023/05/20 08:15:47;;;;;;;11.95;4.45;;;;;;;33.36;38.65;94882.09;5068990;28;20256;-47
2023/05/20 08:18:14;;;;;;;7.97;4.65;;;;;;;33.60;38.41;94904.22;5069324;28;20189;-47
2023/05/20 08:20:41;;;;;;;7.72;4.28;;;;;;;33.88;38.20;94899.19;5069042;28;20186;-47
2023/05/20 08:23:08;;;;;;;9.05;4.30;;;;;;;34.39;37.66;94899.50;5069726;28;20657;-45
2023/05/20 08:25:35;;;;;;;6.18;4.32;;;;;;;34.79;37.35;94888.72;5070410;28;20194;-47
2023/05/20 08:28:04;;;;;;;8.00;4.95;;;;;;;35.14;36.89;94895.44;5069970;28;20190;-45
2023/05/20 08:30:31;;;;;;;10.35;4.97;;;;;;;35.47;36.48;94891.00;5069187;28;20232;-46
2023/05/20 08:32:59;;;;;;;7.18;4.57;;;;;;;35.80;36.21;94888.34;5068691;28;20191;-47
2023/05/20 08:35:26;;;;;;;5.25;4.38;;;;;;;36.10;36.11;94903.03;5068861;28;20229;-46
2023/05/20 08:37:53;;;;;;;10.93;4.15;;;;;;;36.33;35.73;94887.97;5068662;28;20214;-48
2023/05/20 08:40:21;;;;;;;6.20;3.88;;;;;;;36.50;35.42;94882.84;5068562;28;20278;-45
2023/05/20 08:42:51;;;;;;;4.63;3.97;;;;;;;36.50;35.59;94866.88;5068523;28;20703;-46
2023/05/20 08:45:19;;;;;;;4.80;4.38;;;;;;;36.78;35.20;94885.47;5068762;28;20187;-47
2023/05/20 08:47:46;;;;;;;7.80;4.57;;;;;;;36.87;35.10;94889.81;5068986;28;20221;-44
2023/05/20 08:50:17;;;;;;;9.77;4.72;;;;;;;36.95;35.22;94893.69;5071932;28;20666;-48
2023/05/20 08:52:45;;;;;;;6.35;4.03;;;;;;;37.00;34.80;94890.91;5073231;28;20616;-47
2023/05/20 08:55:15;;;;;;;4.60;4.20;;;;;;;37.03;34.74;94881.53;5072569;28;20214;-46
2023/05/20 08:57:44;;;;;;;5.88;4.68;;;;;;;37.10;34.62;94893.34;5073993;28;20625;-48
2023/05/20 09:00:15;;;;;;;9.07;4.50;;;;;;;37.12;34.67;94893.03;5072451;28;20209;-47
2023/05/20 09:02:42;;;;;;;4.75;4.30;;;;;;;37.11;34.58;94889.59;5071990;28;20201;-48
2023/05/20 09:05:11;;;;;;;5.68;4.32;;;;;;;37.05;34.36;94892.66;5071840;28;20193;-46
2023/05/20 09:07:41;;;;;;;7.82;4.55;;;;;;;36.91;34.82;94882.78;5071930;28;20244;-48
2023/05/20 09:10:09;;;;;;;4.95;4.22;;;;;;;36.81;34.64;94876.91;5071924;28;20216;-47
2023/05/20 09:12:36;;;;;;;6.43;4.60;;;;;;;36.69;34.66;94877.41;5072011;28;20211;-46
2023/05/20 09:15:03;;;;;;;6.55;3.85;;;;;;;36.54;34.65;94872.41;5071245;28;20686;-45
2023/05/20 09:17:30;;;;;;;5.70;4.70;;;;;;;36.56;34.82;94872.88;5071669;28;20186;-49
2023/05/20 09:19:57;;;;;;;4.78;4.32;;;;;;;36.42;34.76;94868.31;5071883;28;20311;-47
2023/05/20 09:22:24;;;;;;;6.55;4.70;;;;;;;36.29;34.87;94876.31;5071874;28;20205;-48
2023/05/20 09:24:52;;;;;;;4.65;4.25;;;;;;;36.13;34.85;94868.59;5071126;28;20728;-48
2023/05/20 09:27:23;;;;;;;5.95;4.20;;;;;;;35.96;34.82;94868.38;5071741;28;20293;-47
2023/05/20 09:29:51;;;;;;;5.78;4.45;;;;;;;35.83;35.00;94866.44;5072036;28;20257;-45
2023/05/20 09:32:22;;;;;;;4.70;4.25;;;;;;;35.65;34.91;94858.22;5071812;28;20198;-48
2023/05/20 09:34:49;;;;;;;4.38;3.97;;;;;;;35.52;34.96;94866.97;5071713;28;20291;-45
2023/05/20 09:37:18;;;;;;;5.45;4.53;;;;;;;35.34;35.16;94857.13;5071347;28;20193;-48
2023/05/20 09:39:56;;;;;;;5.65;4.20;;;;;;;35.18;35.09;94865.31;5071364;28;20255;-49
2023/05/20 09:42:27;;;;;;;5.55;5.05;;;;;;;35.01;35.29;94862.38;5071317;28;20245;-46
2023/05/20 09:44:56;;;;;;;5.40;4.57;;;;;;;34.81;35.37;94858.13;5071035;28;20687;-45
2023/05/20 09:47:24;;;;;;;4.78;4.22;;;;;;;34.60;35.70;94860.25;5071377;28;20248;-46
2023/05/20 09:49:52;;;;;;;7.25;4.95;;;;;;;34.47;35.48;94849.50;5071090;28;20614;-46
2023/05/20 09:52:19;;;;;;;5.40;4.60;;;;;;;34.32;35.43;94845.16;5071032;28;20617;-47
2023/05/20 09:54:47;;;;;;;5.13;4.43;;;;;;;34.13;35.76;94845.09;5071595;28;20229;-46
2023/05/20 09:57:16;;;;;;;5.35;4.85;;;;;;;33.97;35.87;94843.69;5071828;28;20182;-47
2023/05/20 09:59:44;;;;;;;4.82;4.35;;;;;;;33.84;35.98;94847.75;5073084;28;20220;-48
2023/05/20 10:02:11;;;;;;;4.72;4.32;;;;;;;33.74;35.73;94846.00;5073398;28;20190;-46
2023/05/20 10:04:45;;;;;;;4.95;4.45;;;;;;;33.54;35.99;94846.16;5075153;28;20202;-45
2023/05/20 10:07:33;;;;;;;4.88;4.30;;;;;;;33.37;36.03;94834.06;5073699;28;20182;-47
2023/05/20 10:10:09;;;;;;;6.18;4.50;;;;;;;33.24;36.41;94831.25;5071423;28;20194;-47
2023/05/20 10:12:44;;;;;;;5.75;4.97;;;;;;;33.13;36.31;94826.03;5071926;28;20695;-48
2023/05/20 10:15:18;;;;;;;5.63;5.03;;;;;;;32.98;36.45;94818.19;5070726;28;20217;-46
2023/05/20 10:17:54;;;;;;;8.38;4.90;;;;;;;32.51;36.46;94763.09;5071237;28;20189;-46
2023/05/20 10:20:21;;;;;;;9.02;4.63;;;;;;;32.72;36.51;94817.53;5070930;28;20196;-47
2023/05/20 10:22:56;;;;;;;4.88;4.47;;;;;;;32.37;36.72;94778.75;5070850;28;20190;-44
2023/05/20 10:25:28;;;;;;;5.72;4.88;;;;;;;32.38;36.81;94812.13;5070081;28;20724;-47
2023/05/20 10:28:08;;;;;;;6.55;4.20;;;;;;;32.18;37.03;94803.19;5070496;28;20195;-48
2023/05/20 10:30:35;;;;;;;6.28;4.75;;;;;;;32.09;37.10;94799.53;5070029;28;20657;-45
2023/05/20 10:33:05;;;;;;;5.05;4.32;;;;;;;31.98;37.03;94796.09;5070371;28;20191;-46
2023/05/20 10:35:32;;;;;;;4.97;4.45;;;;;;;31.90;37.25;94790.56;5069940;28;20214;-46
2023/05/20 10:38:09;;;;;;;7.13;4.47;;;;;;;31.84;37.00;94800.38;5070756;28;20195;-46
2023/05/20 10:40:36;;;;;;;6.22;4.85;;;;;;;31.81;37.00;94792.94;5069910;28;20281;-46
2023/05/20 10:43:11;;;;;;;5.68;4.65;;;;;;;31.69;36.61;94780.03;5070563;28;20190;-46
2023/05/20 10:45:48;;;;;;;4.90;4.35;;;;;;;31.66;36.91;94774.50;5069995;28;20270;-47
2023/05/20 10:48:21;;;;;;;5.32;4.82;;;;;;;31.55;36.80;94775.56;5070067;28;20221;-48
2023/05/20 10:50:49;;;;;;;5.28;4.78;;;;;;;31.39;36.87;94778.22;5070065;28;20191;-46
2023/05/20 10:53:15;;;;;;;6.57;4.45;;;;;;;31.19;37.23;94771.06;5069782;28;20233;-46
2023/05/20 10:55:51;;;;;;;5.22;4.43;;;;;;;31.00;37.03;94772.63;5069473;28;20259;-47
2023/05/20 10:58:21;;;;;;;6.63;4.30;;;;;;;30.91;36.92;94766.31;5071004;28;20189;-46
2023/05/20 11:00:48;;;;;;;5.13;4.65;;;;;;;30.82;36.96;94773.94;5071276;28;20186;-46
2023/05/20 11:03:17;;;;;;;4.88;4.00;;;;;;;30.61;37.39;94759.09;5072636;28;20273;-45
2023/05/20 11:05:45;;;;;;;4.70;4.20;;;;;;;30.47;37.30;94761.44;5069569;28;20201;-45
2023/05/20 11:08:12;;;;;;;5.10;3.72;;;;;;;30.44;37.57;94765.44;5069495;28;20201;-46
2023/05/20 11:10:39;;;;;;;7.43;4.65;;;;;;;30.46;37.01;94757.22;5069110;28;20190;-47
2023/05/20 11:13:07;;;;;;;7.47;5.03;;;;;;;30.42;37.01;94746.41;5069365;28;20201;-45
2023/05/20 11:15:35;;;;;;;4.95;4.55;;;;;;;30.30;37.38;94748.47;5069204;28;20275;-45
2023/05/20 11:18:04;;;;;;;8.50;5.00;;;;;;;30.15;37.29;94751.09;5069814;28;20210;-46
2023/05/20 11:20:34;;;;;;;4.47;4.07;;;;;;;29.97;37.77;94744.38;5069270;28;20182;-46
2023/05/20 11:23:01;;;;;;;5.13;4.30;;;;;;;29.84;37.98;94740.38;5069301;28;20186;-47
2023/05/20 11:25:28;;;;;;;5.80;4.32;;;;;;;29.71;37.92;94749.56;5069346;28;20194;-44
2023/05/20 11:27:55;;;;;;;7.15;4.50;;;;;;;29.62;37.71;94735.28;5069296;28;20646;-47
2023/05/20 11:30:22;;;;;;;4.65;4.05;;;;;;;29.59;37.79;94737.63;5069047;28;20290;-45
2023/05/20 11:33:11;;;;;;;4.60;4.05;;;;;;;29.47;37.76;94721.97;5069363;28;20286;-47
2023/05/20 11:35:45;;;;;;;4.82;4.10;;;;;;;29.43;37.87;94721.69;5068796;28;20229;-45